Time;durP1;ratioP1;P1;durP2;ratioP2;P2;SDS_P1;SDS_P2;PMS_P1;PMS_P2;Temp;Humidity;BMP_temperature;BMP_pressure;BME280_temperature;BME280_humidity;BME280_pressure;Samples;Min_cycle;Max_cycle;Signal;HPM_P1;HPM_P2
2022/07/27 00:01:14;;;;;;;3.58;2.20;;;;;;;12.66;100.00;101932.31;4999653;28;20054;-66
2022/07/27 00:03:40;;;;;;;6.63;2.58;;;;;;;12.63;100.00;101934.28;4999009;28;20669;-66
2022/07/27 00:06:06;;;;;;;5.57;3.20;;;;;;;12.68;100.00;101934.91;4998819;28;20048;-67
2022/07/27 00:08:32;;;;;;;4.00;2.22;;;;;;;12.47;100.00;101934.25;5001382;28;20204;-66
2022/07/27 00:10:57;;;;;;;3.42;2.50;;;;;;;12.55;100.00;101934.72;5001530;28;20489;-66
2022/07/27 00:13:23;;;;;;;4.70;2.70;;;;;;;12.70;100.00;101930.31;5001161;28;20560;-66
2022/07/27 00:15:49;;;;;;;5.47;2.45;;;;;;;12.75;100.00;101922.03;5000586;28;20046;-66
2022/07/27 00:18:15;;;;;;;7.22;2.65;;;;;;;12.83;100.00;101933.19;5000087;28;20471;-65
2022/07/27 00:20:40;;;;;;;3.50;2.55;;;;;;;12.44;100.00;101929.91;4998666;28;20042;-65
2022/07/27 00:23:06;;;;;;;4.07;2.45;;;;;;;12.29;100.00;101928.06;4999570;28;20038;-65
2022/07/27 00:25:32;;;;;;;5.05;2.35;;;;;;;12.20;100.00;101931.25;4999374;28;20093;-65
2022/07/27 00:27:57;;;;;;;2.35;2.10;;;;;;;12.16;100.00;101933.22;4999264;28;20034;-65
2022/07/27 00:30:24;;;;;;;3.80;2.55;;;;;;;12.31;100.00;101936.88;4999218;28;20042;-65
2022/07/27 00:32:50;;;;;;;6.10;2.80;;;;;;;12.28;100.00;101937.03;4999521;28;20712;-65
2022/07/27 00:35:15;;;;;;;7.00;2.70;;;;;;;12.32;100.00;101937.75;4982091;28;20054;-65
2022/07/27 00:37:41;;;;;;;7.13;2.42;;;;;;;12.25;100.00;101933.66;4999993;28;20045;-65
2022/07/27 00:40:08;;;;;;;5.00;3.08;;;;;;;12.18;100.00;101941.16;5000452;28;20042;-65
2022/07/27 00:42:34;;;;;;;6.32;2.55;;;;;;;12.15;100.00;101933.31;5000215;28;20041;-65
2022/07/27 00:44:59;;;;;;;9.13;3.00;;;;;;;12.22;100.00;101931.16;5000575;28;20116;-65
2022/07/27 00:47:26;;;;;;;4.65;2.70;;;;;;;12.03;100.00;101929.44;5000314;28;20052;-66
2022/07/27 00:50:02;;;;;;;3.95;2.88;;;;;;;11.98;100.00;101928.81;5000372;28;20037;-65
2022/07/27 00:52:28;;;;;;;5.93;2.63;;;;;;;11.87;100.00;101929.38;5000587;28;20183;-65
2022/07/27 00:54:54;;;;;;;4.35;2.20;;;;;;;11.71;100.00;101931.06;4999488;28;20061;-67
2022/07/27 00:57:21;;;;;;;4.35;2.38;;;;;;;11.77;100.00;101936.09;4999681;28;20049;-66
2022/07/27 00:59:47;;;;;;;6.47;2.70;;;;;;;11.86;100.00;101922.31;4997746;28;20062;-65
2022/07/27 01:02:12;;;;;;;5.70;2.70;;;;;;;11.82;100.00;101925.22;4999672;28;20041;-65
2022/07/27 01:04:40;;;;;;;4.93;2.55;;;;;;;11.97;100.00;101927.09;5000224;28;20145;-67
2022/07/27 01:07:06;;;;;;;7.22;2.88;;;;;;;11.79;100.00;101926.19;5000096;28;20459;-66
2022/07/27 01:12:25;;;;;;;6.28;2.45;;;;;;;11.35;100.00;101928.44;4999632;28;20042;-65
2022/07/27 01:14:54;;;;;;;3.13;2.40;;;;;;;11.35;100.00;101931.97;4988402;28;20038;-65
2022/07/27 01:17:19;;;;;;;5.20;2.63;;;;;;;11.40;100.00;101935.28;4998356;28;20184;-67
2022/07/27 01:19:46;;;;;;;5.88;2.63;;;;;;;11.39;100.00;101938.88;5000001;28;20070;-67
2022/07/27 01:22:11;;;;;;;5.22;2.08;;;;;;;11.43;100.00;101928.91;4999637;28;20038;-67
2022/07/27 01:24:37;;;;;;;4.20;2.85;;;;;;;11.38;100.00;101934.47;4999432;28;20045;-67
2022/07/27 01:27:06;;;;;;;3.20;2.83;;;;;;;11.33;100.00;101935.63;4999728;28;20160;-67
2022/07/27 01:29:33;;;;;;;3.97;2.17;;;;;;;11.26;100.00;101940.44;4998161;28;20053;-67
2022/07/27 01:31:59;;;;;;;3.72;2.00;;;;;;;11.27;100.00;101943.97;4999797;28;20034;-66
2022/07/27 01:34:28;;;;;;;3.63;2.20;;;;;;;11.37;100.00;101940.75;5000237;28;20049;-67
2022/07/27 01:36:53;;;;;;;5.75;2.47;;;;;;;11.48;100.00;101934.88;4998687;28;20049;-67
2022/07/27 01:39:19;;;;;;;2.95;2.58;;;;;;;11.55;100.00;101933.66;4999903;28;20647;-68
2022/07/27 01:41:45;;;;;;;4.82;3.47;;;;;;;11.46;100.00;101936.78;5000548;28;20042;-65
2022/07/27 01:44:10;;;;;;;3.78;2.22;;;;;;;11.40;100.00;101926.41;5002559;28;20047;-65
2022/07/27 01:46:36;;;;;;;3.42;2.47;;;;;;;11.35;100.00;101929.31;5002357;28;20064;-65
2022/07/27 01:49:02;;;;;;;5.20;2.20;;;;;;;11.28;100.00;101940.34;5003650;28;20038;-65
2022/07/27 01:51:27;;;;;;;6.13;2.50;;;;;;;11.26;100.00;101934.22;5003279;28;20041;-65
2022/07/27 01:53:53;;;;;;;6.32;2.58;;;;;;;11.43;100.00;101923.56;5003544;28;20041;-64
2022/07/27 01:56:18;;;;;;;4.75;2.50;;;;;;;11.44;100.00;101922.63;5002367;28;20105;-64
2022/07/27 01:58:46;;;;;;;4.38;2.40;;;;;;;11.39;100.00;101924.66;4985633;28;20852;-65
2022/07/27 02:01:12;;;;;;;6.78;2.80;;;;;;;11.25;100.00;101922.69;5003587;28;20050;-67
2022/07/27 02:03:40;;;;;;;9.70;2.70;;;;;;;11.19;100.00;101930.97;5003482;28;20057;-67
2022/07/27 02:06:06;;;;;;;6.20;2.10;;;;;;;10.95;100.00;101930.34;5003334;28;20041;-65
2022/07/27 02:08:31;;;;;;;2.45;2.10;;;;;;;11.09;100.00;101932.34;5003243;28;20033;-65
2022/07/27 02:13:46;;;;;;;3.80;2.80;;;;;;;11.18;100.00;101917.69;5003876;28;20050;-67
2022/07/27 02:16:12;;;;;;;8.25;3.00;;;;;;;11.28;100.00;101913.63;5003952;28;20070;-67
2022/07/27 02:18:41;;;;;;;4.97;3.10;;;;;;;11.32;100.00;101916.09;5003418;28;20073;-67
2022/07/27 02:21:07;;;;;;;4.00;1.98;;;;;;;11.07;100.00;101921.75;5003517;28;20053;-67
2022/07/27 02:23:34;;;;;;;2.83;2.20;;;;;;;10.97;100.00;101922.28;5003539;28;20037;-67
2022/07/27 02:26:02;;;;;;;3.08;1.77;;;;;;;10.86;100.00;101917.44;4994356;28;20110;-68
2022/07/27 02:28:28;;;;;;;7.10;2.28;;;;;;;11.13;100.00;101921.44;4983777;28;20790;-67
2022/07/27 02:30:53;;;;;;;6.22;2.63;;;;;;;11.49;100.00;101911.72;4983982;28;20049;-67
2022/07/27 02:33:19;;;;;;;4.22;2.80;;;;;;;11.60;100.00;101906.72;4983788;28;20046;-67
2022/07/27 02:35:44;;;;;;;3.80;2.85;;;;;;;11.48;100.00;101912.66;4983599;28;20034;-67
2022/07/27 02:38:10;;;;;;;3.72;2.40;;;;;;;11.48;100.00;101910.84;4983056;28;20561;-67
2022/07/27 02:40:35;;;;;;;4.78;2.88;;;;;;;11.52;100.00;101915.09;4981013;28;20037;-67
2022/07/27 02:43:00;;;;;;;3.00;2.33;;;;;;;11.12;100.00;101911.72;4982786;28;20043;-67
2022/07/27 02:45:26;;;;;;;4.30;2.60;;;;;;;11.43;100.00;101912.03;4982337;28;20049;-67
2022/07/27 02:47:52;;;;;;;7.72;2.78;;;;;;;11.40;100.00;101913.06;4980775;28;20042;-67
2022/07/27 02:50:17;;;;;;;4.15;2.40;;;;;;;11.46;100.00;101911.88;4982783;28;20050;-64
2022/07/27 02:52:43;;;;;;;6.82;2.80;;;;;;;11.48;100.00;101916.19;4981642;28;20128;-65
2022/07/27 02:55:08;;;;;;;6.22;3.47;;;;;;;11.83;100.00;101908.22;4982890;28;20038;-64
2022/07/27 02:57:36;;;;;;;7.30;3.65;;;;;;;11.91;100.00;101911.38;4983620;28;20046;-65
2022/07/27 03:00:05;;;;;;;6.43;2.88;;;;;;;11.96;100.00;101914.69;4983284;28;20582;-67
2022/07/27 03:02:31;;;;;;;6.50;2.90;;;;;;;11.89;100.00;101902.56;4982264;28;20050;-67
2022/07/27 03:04:56;;;;;;;6.40;2.58;;;;;;;11.93;100.00;101909.47;4987114;28;20099;-67
2022/07/27 03:07:22;;;;;;;6.88;3.53;;;;;;;12.05;100.00;101902.63;5001127;28;20045;-67
2022/07/27 03:09:47;;;;;;;6.13;3.55;;;;;;;12.14;100.00;101907.47;5002613;28;20930;-65
2022/07/27 03:12:12;;;;;;;3.92;2.50;;;;;;;12.25;100.00;101910.47;5001610;28;20671;-64
2022/07/27 03:14:38;;;;;;;9.73;3.15;;;;;;;12.18;100.00;101909.91;5001667;28;20491;-65
2022/07/27 03:17:03;;;;;;;7.90;2.90;;;;;;;11.94;100.00;101913.88;5002304;28;20092;-65
2022/07/27 03:19:29;;;;;;;5.88;3.00;;;;;;;11.99;100.00;101906.47;5002576;28;20403;-65
2022/07/27 03:21:54;;;;;;;5.80;2.70;;;;;;;12.01;100.00;101912.63;5002287;28;20038;-65
2022/07/27 03:24:20;;;;;;;4.00;3.13;;;;;;;12.00;100.00;101905.56;5002281;28;20080;-64
2022/07/27 03:26:45;;;;;;;5.57;3.10;;;;;;;12.14;100.00;101903.00;5001742;28;20037;-65
2022/07/27 03:29:12;;;;;;;6.60;2.78;;;;;;;12.16;100.00;101910.97;5001184;28;20038;-65
2022/07/27 03:31:37;;;;;;;5.35;3.35;;;;;;;11.93;100.00;101901.47;5000759;28;20049;-65
2022/07/27 03:34:04;;;;;;;6.15;2.85;;;;;;;11.93;100.00;101901.47;5000431;28;20045;-64
2022/07/27 03:36:30;;;;;;;7.78;3.00;;;;;;;11.97;100.00;101908.38;5001681;28;20060;-67
2022/07/27 03:38:55;;;;;;;7.00;2.75;;;;;;;12.24;100.00;101906.06;5001175;28;20163;-67
2022/07/27 03:41:21;;;;;;;5.32;2.60;;;;;;;11.95;100.00;101904.94;5002450;28;20037;-67
2022/07/27 03:43:48;;;;;;;3.58;2.70;;;;;;;11.80;100.00;101903.03;5001356;28;20045;-67
2022/07/27 03:46:14;;;;;;;3.97;2.60;;;;;;;11.91;100.00;101914.06;5001658;28;20042;-68
2022/07/27 03:48:40;;;;;;;4.57;2.60;;;;;;;12.05;100.00;101914.22;5001625;28;20049;-65
2022/07/27 03:51:05;;;;;;;9.25;3.38;;;;;;;12.04;100.00;101912.44;5001822;28;20057;-67
2022/07/27 03:53:31;;;;;;;7.13;3.25;;;;;;;12.11;100.00;101913.00;5001656;28;20049;-65
2022/07/27 03:56:02;;;;;;;7.43;3.40;;;;;;;12.18;100.00;101915.25;5002235;28;20045;-65
2022/07/27 03:58:27;;;;;;;4.55;2.90;;;;;;;12.32;100.00;101914.53;5002284;28;20034;-67
2022/07/27 04:00:53;;;;;;;5.75;3.10;;;;;;;12.39;100.00;101910.56;5000343;28;20494;-67
2022/07/27 04:03:18;;;;;;;3.85;2.60;;;;;;;12.43;100.00;101914.81;5001578;28;20045;-67
2022/07/27 04:05:46;;;;;;;7.85;3.10;;;;;;;12.49;100.00;101918.13;5000632;28;20044;-68
2022/07/27 04:08:12;;;;;;;10.45;3.25;;;;;;;12.60;100.00;101923.75;5001293;28;20473;-65
2022/07/27 04:10:40;;;;;;;8.77;3.20;;;;;;;12.69;100.00;101920.56;5002246;28;20041;-65
2022/07/27 04:13:05;;;;;;;4.18;2.65;;;;;;;12.84;100.00;101924.22;5002046;28;20124;-65
2022/07/27 04:15:31;;;;;;;4.18;2.85;;;;;;;12.79;100.00;101918.25;5001429;28;20041;-65
2022/07/27 04:17:57;;;;;;;7.43;3.30;;;;;;;12.78;100.00;101922.75;5002151;28;20049;-64
2022/07/27 04:20:22;;;;;;;4.20;2.75;;;;;;;12.83;100.00;101923.34;5002079;28;20045;-65
2022/07/27 04:22:47;;;;;;;6.10;2.90;;;;;;;12.74;100.00;101923.00;5001731;28;20121;-65
2022/07/27 04:25:13;;;;;;;10.23;4.43;;;;;;;12.74;100.00;101925.66;5001344;28;20557;-65
2022/07/27 04:27:38;;;;;;;10.57;5.28;;;;;;;12.75;100.00;101927.38;5000111;28;20038;-64
2022/07/27 04:30:04;;;;;;;12.75;5.93;;;;;;;12.94;100.00;101930.78;4999737;28;20049;-65
2022/07/27 04:32:30;;;;;;;4.95;3.50;;;;;;;12.85;100.00;101926.81;4999581;28;20046;-64
2022/07/27 04:34:55;;;;;;;8.55;3.58;;;;;;;12.75;100.00;101935.41;5001164;28;20111;-64
2022/07/27 04:37:21;;;;;;;7.13;3.35;;;;;;;12.95;100.00;101929.81;5000901;28;20745;-67
2022/07/27 04:39:46;;;;;;;4.40;3.00;;;;;;;13.08;100.00;101930.88;4998988;28;20049;-67
2022/07/27 04:42:12;;;;;;;6.65;2.95;;;;;;;13.05;100.00;101933.75;5000622;28;20042;-65
2022/07/27 04:44:40;;;;;;;14.80;3.45;;;;;;;13.15;100.00;101932.28;5000172;28;20100;-65
2022/07/27 04:47:05;;;;;;;6.30;3.30;;;;;;;13.20;100.00;101931.97;5000530;28;20037;-65
2022/07/27 04:49:30;;;;;;;6.88;3.10;;;;;;;12.99;100.00;101939.41;5000977;28;20056;-64
2022/07/27 04:51:58;;;;;;;10.25;3.50;;;;;;;12.88;100.00;101941.84;5001044;28;20049;-65
2022/07/27 04:54:24;;;;;;;4.60;3.15;;;;;;;13.08;100.00;101949.63;5001192;28;20053;-65
2022/07/27 04:56:50;;;;;;;4.60;2.97;;;;;;;13.20;100.00;101945.38;5000826;28;20034;-65
2022/07/27 04:59:15;;;;;;;6.70;3.10;;;;;;;13.28;100.00;101955.69;4983112;28;20446;-67
2022/07/27 05:01:41;;;;;;;5.30;2.95;;;;;;;13.14;100.00;101959.13;4998951;28;20050;-67
2022/07/27 05:04:06;;;;;;;7.47;3.25;;;;;;;13.24;100.00;101963.03;5000342;28;20034;-68
2022/07/27 05:06:32;;;;;;;6.40;2.95;;;;;;;13.26;100.00;101971.00;5000495;28;20054;-67
2022/07/27 05:08:58;;;;;;;6.05;2.95;;;;;;;13.11;100.00;101964.66;5001298;28;20049;-64
2022/07/27 05:11:23;;;;;;;8.27;3.10;;;;;;;13.17;100.00;101972.34;5000836;28;20049;-64
2022/07/27 05:13:49;;;;;;;7.70;2.45;;;;;;;13.15;100.00;101974.22;4999770;28;20042;-67
2022/07/27 05:16:15;;;;;;;4.05;2.20;;;;;;;13.10;100.00;101981.66;4999460;28;20661;-67
2022/07/27 05:18:40;;;;;;;6.15;2.15;;;;;;;12.99;100.00;101982.25;4999998;28;20044;-67
2022/07/27 05:21:06;;;;;;;8.10;2.78;;;;;;;12.99;100.00;101987.63;4999176;28;20069;-67
2022/07/27 05:23:35;;;;;;;7.97;2.90;;;;;;;12.81;100.00;101986.81;4982628;28;20072;-66
2022/07/27 05:26:00;;;;;;;5.20;1.70;;;;;;;12.74;100.00;101996.13;5000782;28;20619;-66
2022/07/27 05:28:25;;;;;;;7.30;2.05;;;;;;;12.77;100.00;101995.09;5001241;28;20038;-67
2022/07/27 05:30:55;;;;;;;6.65;1.80;;;;;;;12.72;100.00;101994.47;5001204;28;20045;-67
2022/07/27 05:33:21;;;;;;;6.00;1.92;;;;;;;12.65;100.00;101997.50;5000509;28;20733;-67
2022/07/27 05:35:46;;;;;;;12.73;2.38;;;;;;;12.59;100.00;102005.81;5000966;28;20053;-67
2022/07/27 05:38:12;;;;;;;6.78;2.15;;;;;;;12.65;100.00;102005.53;5000762;28;20049;-67
2022/07/27 05:40:40;;;;;;;5.18;2.28;;;;;;;12.63;100.00;102006.53;4999439;28;20069;-67
2022/07/27 05:43:05;;;;;;;11.63;2.60;;;;;;;12.78;100.00;102015.56;5002939;28;20137;-65
2022/07/27 05:45:31;;;;;;;5.07;2.05;;;;;;;12.84;100.00;102015.22;5002581;28;20120;-64
2022/07/27 05:47:58;;;;;;;8.27;2.63;;;;;;;12.88;100.00;102019.47;5002298;28;20052;-68
2022/07/27 05:50:24;;;;;;;5.35;2.22;;;;;;;12.72;100.00;102031.94;4999945;28;20042;-68
2022/07/27 05:52:49;;;;;;;6.32;2.17;;;;;;;12.77;100.00;102033.44;5000025;28;20133;-69
2022/07/27 05:55:15;;;;;;;6.53;1.77;;;;;;;12.93;100.00;102031.66;4981823;28;20029;-69
2022/07/27 05:57:46;;;;;;;8.05;2.00;;;;;;;12.87;100.00;102029.31;4998256;28;20068;-68
2022/07/27 06:00:11;;;;;;;5.28;2.15;;;;;;;12.93;100.00;102039.69;4999888;28;20049;-68
2022/07/27 06:02:39;;;;;;;8.45;2.22;;;;;;;13.15;100.00;102035.84;4999216;28;20057;-68
2022/07/27 06:05:05;;;;;;;10.18;2.85;;;;;;;13.14;100.00;102034.97;4999826;28;21045;-69
2022/07/27 06:08:13;;;;;;;5.13;1.77;;;;;;;13.24;100.00;102029.16;5000220;28;20049;-68
2022/07/27 06:10:20;;;;;;;4.03;2.35;;;;;;;13.38;100.00;102035.47;4997826;28;20065;-68
2022/07/27 06:12:48;;;;;;;3.60;1.60;;;;;;;13.44;100.00;102023.53;4998955;28;20046;-69
2022/07/27 06:15:16;;;;;;;5.35;1.65;;;;;;;13.32;100.00;102024.22;4982128;28;20052;-68
2022/07/27 06:17:42;;;;;;;1.95;1.38;;;;;;;13.45;100.00;102023.47;5000651;28;20042;-68
2022/07/27 06:20:09;;;;;;;3.17;1.70;;;;;;;13.48;100.00;102012.56;4983118;28;20081;-69
2022/07/27 06:22:48;;;;;;;2.50;1.33;;;;;;;13.54;100.00;102008.66;5000502;28;20042;-68
2022/07/27 06:25:14;;;;;;;6.63;1.45;;;;;;;13.65;100.00;102018.75;4999006;28;20034;-68
2022/07/27 06:27:39;;;;;;;5.85;1.40;;;;;;;13.72;100.00;102018.34;5000516;28;20060;-68
2022/07/27 06:30:05;;;;;;;4.15;2.28;;;;;;;13.91;100.00;102011.91;5004305;28;20487;-68
2022/07/27 06:32:31;;;;;;;4.13;1.20;;;;;;;14.08;100.00;102019.81;5001778;28;20046;-68
2022/07/27 06:34:56;;;;;;;1.75;1.45;;;;;;;14.35;100.00;102019.09;5003628;28;20069;-68
2022/07/27 06:37:22;;;;;;;2.17;1.30;;;;;;;14.50;100.00;102015.53;5002971;28;20037;-68
2022/07/27 06:39:47;;;;;;;1.92;1.25;;;;;;;15.00;100.00;102012.38;5002991;28;20067;-68
2022/07/27 06:42:13;;;;;;;7.65;1.40;;;;;;;14.79;100.00;102018.25;5003471;28;20034;-68
2022/07/27 06:44:39;;;;;;;2.60;1.38;;;;;;;14.72;100.00;102015.09;5001543;28;20453;-68
2022/07/27 06:47:06;;;;;;;2.30;1.35;;;;;;;15.03;100.00;102016.72;5003207;28;20030;-68
2022/07/27 06:49:32;;;;;;;7.97;1.52;;;;;;;15.25;100.00;102019.75;5003247;28;20052;-68
2022/07/27 06:51:57;;;;;;;1.75;1.52;;;;;;;15.38;100.00;102017.16;5002779;28;20038;-68
2022/07/27 06:54:23;;;;;;;4.45;1.33;;;;;;;15.69;100.00;102018.72;5003226;28;20573;-69
2022/07/27 06:56:48;;;;;;;4.63;1.48;;;;;;;15.82;100.00;102008.03;5003183;28;20049;-67
2022/07/27 06:59:14;;;;;;;6.47;1.38;;;;;;;16.37;100.00;101998.03;5002495;28;20116;-66
2022/07/27 07:01:39;;;;;;;2.05;1.10;;;;;;;16.66;100.00;101996.81;5002371;28;20076;-67
2022/07/27 07:04:05;;;;;;;2.38;1.50;;;;;;;16.90;96.18;102004.16;5000305;28;20340;-66
2022/07/27 07:06:31;;;;;;;3.83;1.50;;;;;;;16.80;93.77;101995.88;5001534;28;20050;-66
2022/07/27 07:08:56;;;;;;;6.05;1.48;;;;;;;17.07;94.47;102001.16;5002275;28;20046;-66
2022/07/27 07:11:22;;;;;;;1.90;1.15;;;;;;;16.71;94.37;102004.56;5002121;28;20046;-66
2022/07/27 07:13:47;;;;;;;1.70;1.25;;;;;;;16.80;92.10;102010.22;5001778;28;20049;-66
2022/07/27 07:16:13;;;;;;;9.98;1.45;;;;;;;17.32;88.65;102003.78;5002262;28;20041;-66
2022/07/27 07:18:38;;;;;;;1.23;1.10;;;;;;;18.70;81.98;102006.81;5001969;28;20049;-66
2022/07/27 07:21:04;;;;;;;3.10;1.30;;;;;;;18.41;76.63;102008.19;5000202;28;20081;-66
2022/07/27 07:23:29;;;;;;;2.20;1.40;;;;;;;19.03;77.29;102000.56;5002362;28;20085;-67
2022/07/27 07:25:55;;;;;;;4.75;1.45;;;;;;;19.38;77.72;101999.53;4998248;28;20053;-67
2022/07/27 07:28:21;;;;;;;4.35;1.17;;;;;;;19.07;71.03;101998.44;5002286;28;20038;-66
2022/07/27 07:30:47;;;;;;;3.83;1.10;;;;;;;19.36;71.73;102010.47;5002126;28;20049;-66
2022/07/27 07:33:13;;;;;;;4.97;1.20;;;;;;;18.64;73.61;102018.06;5002697;28;20430;-66
2022/07/27 07:35:38;;;;;;;5.40;1.52;;;;;;;18.66;73.72;102016.09;5002504;28;20076;-66
2022/07/27 07:38:04;;;;;;;5.30;1.13;;;;;;;18.58;70.56;102013.16;5000453;28;20129;-66
2022/07/27 07:40:29;;;;;;;6.07;1.30;;;;;;;18.32;71.26;102018.75;4986938;28;20088;-67
2022/07/27 07:43:01;;;;;;;1.80;0.90;;;;;;;18.66;74.26;102016.09;4989713;28;20051;-67
2022/07/27 07:45:29;;;;;;;2.75;0.90;;;;;;;18.31;69.18;102018.84;5001735;28;20038;-67
2022/07/27 07:47:56;;;;;;;4.72;1.10;;;;;;;19.54;69.46;102015.38;5001817;28;20052;-67
2022/07/27 07:50:21;;;;;;;3.95;1.00;;;;;;;20.46;64.91;102011.16;5002252;28;20104;-67
2022/07/27 07:52:49;;;;;;;6.78;1.10;;;;;;;21.12;62.04;102010.81;5002558;28;20491;-67
2022/07/27 07:55:17;;;;;;;4.18;1.02;;;;;;;20.37;60.39;102014.66;5003272;28;20123;-67
2022/07/27 07:57:43;;;;;;;3.33;0.90;;;;;;;20.68;59.63;102010.16;4985089;28;20045;-67
2022/07/27 08:00:09;;;;;;;3.85;1.05;;;;;;;20.85;60.58;102006.84;5002444;28;20068;-67
2022/07/27 08:02:50;;;;;;;4.25;0.82;;;;;;;21.09;59.75;101998.41;5001787;28;20045;-67
2022/07/27 08:05:16;;;;;;;2.45;1.00;;;;;;;20.89;59.33;102011.03;5000370;28;20037;-67
2022/07/27 08:07:43;;;;;;;3.50;1.20;;;;;;;20.86;59.36;102016.69;5000518;28;20037;-66
2022/07/27 08:10:11;;;;;;;6.20;1.02;;;;;;;21.69;59.69;102017.44;5001450;28;20050;-68
2022/07/27 08:12:40;;;;;;;7.60;1.55;;;;;;;22.18;60.60;102015.59;5003053;28;20381;-67
2022/07/27 08:15:07;;;;;;;8.45;1.30;;;;;;;21.96;62.16;102017.56;4992591;28;20050;-67
2022/07/27 08:17:32;;;;;;;5.53;1.92;;;;;;;21.95;61.69;102015.88;4981286;28;20042;-66
2022/07/27 08:19:58;;;;;;;4.13;1.00;;;;;;;21.55;59.29;102023.25;4983537;28;20042;-66
2022/07/27 08:22:24;;;;;;;8.35;1.65;;;;;;;20.94;62.51;102024.16;4982303;28;20491;-67
2022/07/27 08:24:49;;;;;;;2.42;0.90;;;;;;;20.25;57.98;102024.72;4985158;28;20505;-67
2022/07/27 08:27:15;;;;;;;4.97;1.02;;;;;;;20.47;60.54;102031.88;4982259;28;20844;-66
2022/07/27 08:29:40;;;;;;;4.65;1.08;;;;;;;19.85;60.74;102030.78;4981496;28;20046;-67
2022/07/27 08:32:06;;;;;;;4.20;1.10;;;;;;;20.36;57.48;102024.66;4982640;28;20064;-66
2022/07/27 08:34:31;;;;;;;4.32;1.30;;;;;;;20.02;61.79;102037.50;4980256;28;20045;-66
2022/07/27 08:36:57;;;;;;;2.40;0.90;;;;;;;21.13;59.65;102026.09;4980845;28;20195;-67
2022/07/27 08:39:23;;;;;;;8.75;0.82;;;;;;;20.26;59.07;102031.84;4980927;28;20101;-67
2022/07/27 08:41:54;;;;;;;2.80;0.90;;;;;;;19.62;60.91;102034.53;4979782;28;20042;-67
2022/07/27 08:44:23;;;;;;;5.45;1.40;;;;;;;20.57;62.13;102031.94;4979289;28;20034;-66
2022/07/27 08:46:49;;;;;;;3.92;1.02;;;;;;;19.67;63.57;102035.88;4981670;28;20034;-67
2022/07/27 08:49:16;;;;;;;6.63;1.33;;;;;;;19.81;60.52;102040.16;4981716;28;20050;-70
2022/07/27 08:51:45;;;;;;;3.60;0.95;;;;;;;20.18;63.95;102028.91;4982169;28;20038;-66
2022/07/27 08:54:11;;;;;;;3.15;1.00;;;;;;;21.39;61.54;102019.22;4980414;28;20038;-67
2022/07/27 08:56:37;;;;;;;5.57;1.30;;;;;;;21.59;57.86;102024.69;4980966;28;20045;-66
2022/07/27 08:59:03;;;;;;;3.10;1.10;;;;;;;20.62;59.61;102019.72;4981158;28;20038;-67
2022/07/27 09:01:32;;;;;;;3.72;1.30;;;;;;;21.05;53.38;102023.22;4979242;28;20534;-67
2022/07/27 09:03:58;;;;;;;5.38;0.98;;;;;;;21.08;57.97;102022.94;4979076;28;20042;-67
2022/07/27 09:06:41;;;;;;;1.33;0.90;;;;;;;20.97;57.27;102021.16;4980832;28;20116;-67
2022/07/27 09:09:07;;;;;;;5.50;1.20;;;;;;;22.35;53.41;102017.59;4980608;28;20045;-67
2022/07/27 09:11:35;;;;;;;5.45;1.20;;;;;;;20.83;62.39;102024.25;4979494;28;20042;-67
2022/07/27 09:14:02;;;;;;;14.25;1.83;;;;;;;20.81;60.38;102027.09;4980559;28;20815;-66
2022/07/27 09:16:29;;;;;;;6.18;1.30;;;;;;;21.39;63.35;102021.94;4999739;28;20044;-66
2022/07/27 09:19:00;;;;;;;3.10;1.02;;;;;;;21.37;58.94;102015.78;5000498;28;20042;-66
2022/07/27 09:21:25;;;;;;;3.20;1.30;;;;;;;20.23;58.46;102021.28;4999939;28;20561;-67
2022/07/27 09:23:56;;;;;;;4.55;1.40;;;;;;;21.58;59.25;102017.53;4997957;28;20125;-68
2022/07/27 09:26:27;;;;;;;3.15;0.80;;;;;;;21.41;55.54;102016.38;4999773;28;20041;-67
2022/07/27 09:28:54;;;;;;;1.55;1.27;;;;;;;21.79;53.25;102012.88;4998816;28;20048;-67
2022/07/27 09:31:20;;;;;;;5.85;1.27;;;;;;;21.47;59.52;102013.09;5000170;28;20037;-66
2022/07/27 09:33:53;;;;;;;2.03;1.33;;;;;;;20.42;58.14;102017.84;4999865;28;20045;-66
2022/07/27 09:36:21;;;;;;;5.55;1.23;;;;;;;20.93;56.44;102019.72;4999848;28;20049;-66
2022/07/27 09:38:55;;;;;;;2.35;0.82;;;;;;;21.49;57.11;102011.09;4999404;28;20103;-66
2022/07/27 09:41:22;;;;;;;2.38;1.13;;;;;;;21.40;56.64;102009.22;4998031;28;20533;-66
2022/07/27 09:43:55;;;;;;;3.15;1.00;;;;;;;21.92;55.08;102009.84;5000011;28;20040;-66
2022/07/27 09:46:31;;;;;;;4.80;1.15;;;;;;;21.67;53.95;102005.84;5000197;28;20048;-67
2022/07/27 09:48:57;;;;;;;2.75;1.35;;;;;;;20.94;57.10;102010.63;5001109;28;20053;-66
2022/07/27 09:51:24;;;;;;;8.32;1.20;;;;;;;20.77;55.69;102003.09;5000279;28;20042;-66
2022/07/27 09:53:50;;;;;;;2.10;1.00;;;;;;;20.48;60.43;101997.50;5000962;28;20086;-66
2022/07/27 09:56:16;;;;;;;2.72;1.05;;;;;;;21.55;58.15;102002.41;4999720;28;20036;-67
2022/07/27 09:58:46;;;;;;;5.28;1.00;;;;;;;21.40;55.15;102001.09;4997960;28;20163;-67
2022/07/27 10:01:21;;;;;;;8.82;1.40;;;;;;;21.93;48.74;102003.41;4999339;28;20848;-66
2022/07/27 10:03:49;;;;;;;4.07;1.10;;;;;;;22.25;50.11;102003.16;5003003;28;20045;-67
2022/07/27 10:06:15;;;;;;;2.78;1.30;;;;;;;22.41;50.66;102008.00;5003979;28;20034;-67
2022/07/27 10:08:43;;;;;;;3.00;1.05;;;;;;;22.19;47.80;102003.75;5001163;28;20038;-67
2022/07/27 10:11:10;;;;;;;2.00;0.93;;;;;;;22.18;47.53;102012.88;5001402;28;20736;-66
2022/07/27 10:13:35;;;;;;;2.63;1.10;;;;;;;21.81;49.68;102010.00;5002496;28;20147;-66
2022/07/27 10:16:03;;;;;;;3.95;1.13;;;;;;;22.12;52.97;102480.81;5002602;28;20577;-67
2022/07/27 10:18:55;;;;;;;3.88;1.05;;;;;;;20.87;52.03;102061.78;5003305;28;20038;-68
2022/07/27 10:21:22;;;;;;;4.07;1.27;;;;;;;20.40;52.65;102060.47;5003692;28;20475;-67
2022/07/27 10:23:55;;;;;;;2.42;1.17;;;;;;;20.39;52.08;102059.63;5002109;28;20038;-67
2022/07/27 10:26:23;;;;;;;3.58;1.17;;;;;;;19.91;54.82;102061.91;5003622;28;20433;-68
2022/07/27 10:28:56;;;;;;;8.60;1.67;;;;;;;20.45;53.88;102052.81;5003451;28;20069;-67
2022/07/27 10:31:25;;;;;;;1.20;1.00;;;;;;;20.23;55.63;102056.50;4985070;28;20041;-67
2022/07/27 10:33:59;;;;;;;3.92;1.00;;;;;;;20.07;60.21;102054.22;5002616;28;20046;-67
2022/07/27 10:36:31;;;;;;;2.80;1.02;;;;;;;19.79;57.58;102050.25;5001874;28;20042;-67
2022/07/27 10:38:58;;;;;;;1.85;1.10;;;;;;;19.74;57.92;102047.09;5002155;28;20077;-68
2022/07/27 10:41:29;;;;;;;2.38;1.27;;;;;;;19.41;61.91;102061.50;5001234;28;20037;-67
2022/07/27 10:44:13;;;;;;;5.25;1.52;;;;;;;19.59;100.00;102049.22;5001258;28;20189;-67
2022/07/27 10:46:52;;;;;;;2.90;1.20;;;;;;;19.81;64.22;102029.31;5002289;28;20034;-66
2022/07/27 10:49:22;;;;;;;2.33;1.20;;;;;;;19.87;60.17;102036.06;5003233;28;20057;-68
2022/07/27 10:51:48;;;;;;;3.08;1.63;;;;;;;19.76;57.97;102033.41;5004034;28;20049;-68
2022/07/27 10:54:39;;;;;;;6.40;1.55;;;;;;;20.37;57.29;102020.94;5003493;28;20133;-67
2022/07/27 10:57:07;;;;;;;3.97;1.10;;;;;;;20.10;59.84;102017.91;5002658;28;20120;-65
2022/07/27 10:59:38;;;;;;;4.88;1.00;;;;;;;20.09;60.53;102019.75;4999924;28;20069;-66
2022/07/27 11:02:12;;;;;;;5.88;1.60;;;;;;;20.34;59.79;102018.50;5001387;28;20038;-66
2022/07/27 11:04:50;;;;;;;4.15;1.00;;;;;;;20.34;57.14;102012.25;5002105;28;20434;-66
2022/07/27 11:07:20;;;;;;;2.60;1.00;;;;;;;20.37;58.25;102015.53;5001175;28;20540;-65
2022/07/27 11:09:48;;;;;;;4.13;1.00;;;;;;;21.41;55.41;102005.50;5001745;28;20041;-66
2022/07/27 11:12:15;;;;;;;6.55;1.40;;;;;;;22.22;54.25;101998.00;5003315;28;20069;-65
2022/07/27 11:14:54;;;;;;;3.58;1.35;;;;;;;22.68;54.28;101994.47;5001944;28;20508;-66
2022/07/27 11:17:22;;;;;;;5.55;1.38;;;;;;;23.58;48.79;101998.34;5003734;28;20045;-66
2022/07/27 11:19:52;;;;;;;6.70;1.35;;;;;;;24.10;48.17;101994.94;5001595;28;20042;-66
2022/07/27 11:22:31;;;;;;;6.25;1.85;;;;;;;24.43;49.10;101985.19;5003934;28;20042;-66
2022/07/27 11:24:56;;;;;;;3.78;1.52;;;;;;;25.22;45.60;101973.16;5002651;28;20065;-66